Time;durP1;ratioP1;P1;durP2;ratioP2;P2;SDS_P1;SDS_P2;PMS_P1;PMS_P2;Temp;Humidity;BMP_temperature;BMP_pressure;BME280_temperature;BME280_humidity;BME280_pressure;Samples;Min_cycle;Max_cycle;Signal;HPM_P1;HPM_P2
2023/08/27 00:00:14;;;;;;;8.50;6.60;;;;;;;;;;5030794;28;20227;-64
2023/08/27 00:02:41;;;;;;;7.43;6.68;;;;;;;;;;5030241;28;20297;-64
2023/08/27 00:05:09;;;;;;;7.00;6.30;;;;;;;;;;5030556;28;20650;-64
2023/08/27 00:07:36;;;;;;;7.00;6.47;;;;;;;;;;5030478;28;20855;-64
2023/08/27 00:10:03;;;;;;;7.43;6.82;;;;;;;;;;5030647;28;20238;-64
2023/08/27 00:12:30;;;;;;;7.20;6.72;;;;;;;;;;5030040;28;20196;-64
2023/08/27 00:14:56;;;;;;;7.97;7.22;;;;;;;;;;5030558;28;20278;-64
2023/08/27 00:17:24;;;;;;;9.35;8.10;;;;;;;;;;5030251;28;20203;-64
2023/08/27 00:19:50;;;;;;;10.80;9.95;;;;;;;;;;5030637;28;20203;-65
2023/08/27 00:22:17;;;;;;;12.88;10.00;;;;;;;;;;5030195;28;20204;-64
2023/08/27 00:24:43;;;;;;;11.35;9.25;;;;;;;;;;5030340;28;20261;-64
2023/08/27 00:27:09;;;;;;;10.70;9.60;;;;;;;;;;5030252;28;20281;-64
2023/08/27 00:29:36;;;;;;;11.43;10.23;;;;;;;;;;5030080;28;20690;-64
2023/08/27 00:32:02;;;;;;;14.10;10.05;;;;;;;;;;5029983;28;20199;-65
2023/08/27 00:34:33;;;;;;;10.30;9.40;;;;;;;;;;5030203;28;20254;-64
2023/08/27 00:37:00;;;;;;;10.52;9.65;;;;;;;;;;5030036;28;20314;-64
2023/08/27 00:39:26;;;;;;;10.25;9.35;;;;;;;;;;5030373;28;20287;-64
2023/08/27 00:41:53;;;;;;;10.77;9.95;;;;;;;;;;5029966;28;20567;-64
2023/08/27 00:44:20;;;;;;;10.98;10.13;;;;;;;;;;5029986;28;20253;-64
2023/08/27 00:46:47;;;;;;;10.57;9.63;;;;;;;;;;5029427;28;20593;-64
2023/08/27 00:49:13;;;;;;;11.57;10.30;;;;;;;;;;5030212;28;20216;-64
2023/08/27 00:51:41;;;;;;;11.10;10.15;;;;;;;;;;5029895;28;20227;-64
2023/08/27 00:54:07;;;;;;;11.15;10.15;;;;;;;;;;5030239;28;20239;-64
2023/08/27 00:56:34;;;;;;;11.50;10.52;;;;;;;;;;5018804;28;20239;-64
2023/08/27 00:59:01;;;;;;;11.50;10.32;;;;;;;;;;5028055;28;20199;-65
2023/08/27 01:01:29;;;;;;;11.32;10.32;;;;;;;;;;5027970;28;20207;-64
2023/08/27 01:03:55;;;;;;;12.57;10.98;;;;;;;;;;5027838;28;20674;-65
2023/08/27 01:06:21;;;;;;;11.93;10.85;;;;;;;;;;5027889;28;20210;-64
2023/08/27 01:08:52;;;;;;;11.75;10.75;;;;;;;;;;5028123;28;20235;-64
2023/08/27 01:11:24;;;;;;;11.50;10.18;;;;;;;;;;5027677;28;20208;-64
2023/08/27 01:13:55;;;;;;;11.23;10.32;;;;;;;23.01;nan;94969.03;5027896;28;20208;-64
2023/08/27 01:16:23;;;;;;;11.50;10.70;;;;;;;;;;5028168;28;20227;-64
2023/08/27 01:18:50;;;;;;;11.73;10.63;;;;;;;;;;5028611;28;20215;-64
2023/08/27 01:21:20;;;;;;;12.38;10.65;;;;;;;;;;5029369;28;20749;-64
2023/08/27 01:23:46;;;;;;;11.40;10.57;;;;;;;;;;5030608;28;20268;-65
2023/08/27 01:26:15;;;;;;;11.50;10.60;;;;;;;;;;5033613;28;20671;-64
2023/08/27 01:28:44;;;;;;;12.82;11.13;;;;;;;;;;5033380;28;20777;-64
2023/08/27 01:31:12;;;;;;;11.55;10.70;;;;;;;;;;5033474;28;20725;-65
2023/08/27 01:33:39;;;;;;;11.93;10.90;;;;;;;;;;5033224;28;20304;-63
2023/08/27 01:36:07;;;;;;;12.93;11.82;;;;;;;;;;5033459;28;20255;-64
2023/08/27 01:38:35;;;;;;;13.85;11.63;;;;;;;;;;5033104;28;20239;-63
2023/08/27 01:41:02;;;;;;;22.25;11.57;;;;;;;;;;5033171;28;20211;-63
2023/08/27 01:43:29;;;;;;;12.40;11.40;;;;;;;;;;5033025;28;20208;-63
2023/08/27 01:45:56;;;;;;;12.27;11.23;;;;;;;;;;5030755;28;20207;-64
2023/08/27 01:48:22;;;;;;;11.82;10.93;;;;;;;;;;5032900;28;20203;-64
2023/08/27 01:50:48;;;;;;;11.00;9.95;;;;;;;;;;5033238;28;20208;-64
2023/08/27 01:53:15;;;;;;;11.55;10.40;;;;;;;;;;5033025;28;20293;-64
2023/08/27 01:55:43;;;;;;;11.60;10.60;;;;;;;;;;5032499;28;20262;-64
2023/08/27 01:58:10;;;;;;;14.00;12.15;;;;;;;;;;5032992;28;20206;-64
2023/08/27 02:00:36;;;;;;;12.40;10.98;;;;;;;;;;5032780;28;20235;-64
2023/08/27 02:03:03;;;;;;;13.27;12.07;;;;;;;;;;5032623;28;20281;-64
2023/08/27 02:05:30;;;;;;;11.88;10.88;;;;;;;;;;5033148;28;20203;-64
2023/08/27 02:07:56;;;;;;;10.98;10.07;;;;;;;;;;5032625;28;20293;-64
2023/08/27 02:10:23;;;;;;;12.05;10.52;;;;;;;;;;5032776;28;20262;-64
2023/08/27 02:12:50;;;;;;;11.75;10.75;;;;;;;;;;5032238;28;20204;-64
2023/08/27 02:15:17;;;;;;;12.27;11.38;;;;;;;;;;5032295;28;20783;-64
2023/08/27 02:17:43;;;;;;;12.18;11.07;;;;;;;;;;5032802;28;20583;-64
2023/08/27 02:20:10;;;;;;;12.38;11.25;;;;;;;;;;5032598;28;20281;-64
2023/08/27 02:22:37;;;;;;;12.65;11.45;;;;;;;;;;5032723;28;20254;-64
2023/08/27 02:25:03;;;;;;;12.60;11.50;;;;;;;;;;5032365;28;20619;-65
2023/08/27 02:27:30;;;;;;;13.18;11.82;;;;;;;;;;5032314;28;20210;-64
2023/08/27 02:29:58;;;;;;;12.65;11.55;;;;;;;;;;5032631;28;20200;-64
2023/08/27 02:32:24;;;;;;;13.10;11.88;;;;;;;;;;5031796;28;20270;-64
2023/08/27 02:34:51;;;;;;;14.02;12.45;;;;;;;;;;5032004;28;20199;-64
2023/08/27 02:37:18;;;;;;;12.10;11.02;;;;;;;;;;5031720;28;20266;-64
2023/08/27 02:39:44;;;;;;;11.70;10.80;;;;;;;;;;5020026;28;20298;-64
2023/08/27 02:42:11;;;;;;;13.18;11.93;;;;;;;;;;5032056;28;20269;-64
2023/08/27 02:44:37;;;;;;;16.83;11.98;;;;;;;;;;5032183;28;20704;-64
2023/08/27 02:47:05;;;;;;;12.65;11.27;;;;;;;;;;5031719;28;20235;-65
2023/08/27 02:49:32;;;;;;;12.27;11.25;;;;;;;;;;5032052;28;20234;-64
2023/08/27 02:51:58;;;;;;;12.60;11.40;;;;;;;;;;5031583;28;20206;-64
2023/08/27 02:54:25;;;;;;;12.50;11.35;;;;;;;;;;5031565;28;20741;-64
2023/08/27 02:56:51;;;;;;;11.90;11.00;;;;;;;;;;5027560;28;20306;-64
2023/08/27 02:59:17;;;;;;;12.50;11.50;;;;;;;;;;5029817;28;20196;-64
2023/08/27 03:01:44;;;;;;;12.68;11.68;;;;;;;;;;5029684;28;20200;-64
2023/08/27 03:04:12;;;;;;;11.98;11.07;;;;;;;;;;5030377;28;20254;-64
2023/08/27 03:06:38;;;;;;;13.27;12.13;;;;;;;;;;5030703;28;20203;-65
2023/08/27 03:09:05;;;;;;;12.45;11.25;;;;;;;;;;5030166;28;20772;-64
2023/08/27 03:11:31;;;;;;;12.07;11.05;;;;;;;;;;5030004;28;20195;-64
2023/08/27 03:13:58;;;;;;;12.93;11.65;;;;;;;;;;5030614;28;20196;-64
2023/08/27 03:16:24;;;;;;;11.15;10.25;;;;;;;;;;5029861;28;20216;-64
2023/08/27 03:18:51;;;;;;;13.57;12.23;;;;;;;;;;5030409;28;20297;-63
2023/08/27 03:21:19;;;;;;;12.13;11.02;;;;;;;;;;5031743;28;20199;-63
2023/08/27 03:23:45;;;;;;;11.75;10.85;;;;;;;;;;5032090;28;20286;-63
2023/08/27 03:26:11;;;;;;;12.50;11.27;;;;;;;;;;5031345;28;20636;-65
2023/08/27 03:28:38;;;;;;;13.70;11.93;;;;;;;;;;5031357;28;20729;-64
2023/08/27 03:31:04;;;;;;;11.70;10.55;;;;;;;;;;5031300;28;20207;-64
2023/08/27 03:33:31;;;;;;;12.48;11.20;;;;;;;;;;5031219;28;20235;-64
2023/08/27 03:35:58;;;;;;;13.13;11.93;;;;;;;;;;5031450;28;20310;-64
2023/08/27 03:38:26;;;;;;;11.63;10.63;;;;;;;;;;5031343;28;20770;-64
2023/08/27 03:40:53;;;;;;;23.80;12.43;;;;;;;;;;5031025;28;20239;-65
2023/08/27 03:43:20;;;;;;;14.02;12.40;;;;;;;;;;5031637;28;20231;-65
2023/08/27 03:45:46;;;;;;;11.68;10.88;;;;;;;;;;5031058;28;20214;-64
2023/08/27 03:48:13;;;;;;;12.25;11.13;;;;;;;;;;5030831;28;20350;-64
2023/08/27 03:50:39;;;;;;;12.35;10.98;;;;;;;;;;5031162;28;20211;-64
2023/08/27 03:53:06;;;;;;;12.52;11.52;;;;;;;;;;5030830;28;20227;-64
2023/08/27 03:55:39;;;;;;;12.32;11.13;;;;;;;;;;5030772;28;20645;-65
2023/08/27 03:58:06;;;;;;;11.93;10.95;;;;;;;;;;5031169;28;20575;-64
2023/08/27 04:00:33;;;;;;;12.18;11.00;;;;;;;;;;5030547;28;20210;-65
2023/08/27 04:03:00;;;;;;;14.27;11.98;;;;;;;;;;5031186;28;20211;-64
2023/08/27 04:05:26;;;;;;;15.30;13.15;;;;;;;;;;5030480;28;20231;-64
2023/08/27 04:07:53;;;;;;;18.95;12.32;;;;;;;;;;5031284;28;20239;-64
2023/08/27 04:10:19;;;;;;;15.68;11.88;;;;;;;;;;5030200;28;20203;-65
2023/08/27 04:12:47;;;;;;;13.75;12.00;;;;;;;;;;5030848;28;20207;-65
2023/08/27 04:15:14;;;;;;;11.93;11.00;;;;;;;;;;5030211;28;20241;-64
2023/08/27 04:17:40;;;;;;;11.90;10.80;;;;;;;;;;5030623;28;20203;-64
2023/08/27 04:20:08;;;;;;;13.88;11.60;;;;;;;;;;5030097;28;20620;-64
2023/08/27 04:22:35;;;;;;;13.05;11.95;;;;;;;;;;5030931;28;20207;-64
2023/08/27 04:25:02;;;;;;;12.30;11.18;;;;;;;;;;5030609;28;20773;-64
2023/08/27 04:27:29;;;;;;;13.32;12.00;;;;;;;;;;5030882;28;20203;-64
2023/08/27 04:29:56;;;;;;;12.35;11.45;;;;;;;;;;5030507;28;20250;-64
2023/08/27 04:32:23;;;;;;;13.52;12.07;;;;;;;;;;5030494;28;20265;-64
2023/08/27 04:34:49;;;;;;;16.92;11.70;;;;;;;;;;5029576;28;20231;-65
2023/08/27 04:37:16;;;;;;;15.27;11.23;;;;;;;;;;5030624;28;20219;-65
2023/08/27 04:39:42;;;;;;;11.73;10.43;;;;;;;;;;5030285;28;20285;-64
2023/08/27 04:42:09;;;;;;;12.48;11.27;;;;;;;;;;5030351;28;20211;-65
2023/08/27 04:44:35;;;;;;;12.45;10.52;;;;;;;;;;5030327;28;20265;-64
2023/08/27 04:47:03;;;;;;;12.32;11.05;;;;;;;;;;5030046;28;20231;-65
2023/08/27 04:49:30;;;;;;;16.80;10.32;;;;;;;;;;5029682;28;20641;-65
2023/08/27 04:51:56;;;;;;;11.52;10.52;;;;;;;;;;5029645;28;20470;-65
2023/08/27 04:54:23;;;;;;;11.60;10.45;;;;;;;;;;5030046;28;20752;-65
2023/08/27 04:56:49;;;;;;;11.95;10.75;;;;;;;;;;5029609;28;20223;-65
2023/08/27 04:59:16;;;;;;;11.45;10.45;;;;;;;;;;5028132;28;20203;-65
2023/08/27 05:01:42;;;;;;;10.80;9.80;;;;;;;;;;5028416;28;20199;-64
2023/08/27 05:04:10;;;;;;;11.38;10.48;;;;;;;;;;5028330;28;20278;-65
2023/08/27 05:06:36;;;;;;;12.02;10.88;;;;;;;;;;5028297;28;20199;-64
2023/08/27 05:09:03;;;;;;;11.13;10.23;;;;;;;;;;5028303;28;20196;-65
2023/08/27 05:11:29;;;;;;;11.40;10.27;;;;;;;;;;5028093;28;20694;-64
2023/08/27 05:13:56;;;;;;;10.75;9.75;;;;;;;;;;5028260;28;20751;-65
2023/08/27 05:16:22;;;;;;;10.68;9.98;;;;;;;;;;5027707;28;20946;-64
2023/08/27 05:18:49;;;;;;;10.07;9.38;;;;;;;;;;5029235;28;20239;-65
2023/08/27 05:21:16;;;;;;;11.45;10.25;;;;;;;;;;5029270;28;20265;-64
2023/08/27 05:23:43;;;;;;;12.55;9.63;;;;;;;;;;5029775;28;20231;-63
2023/08/27 05:26:09;;;;;;;10.18;9.27;;;;;;;;;;5029366;28;20200;-64
2023/08/27 05:28:36;;;;;;;11.48;9.18;;;;;;;;;;5029842;28;20599;-64
2023/08/27 05:31:03;;;;;;;11.75;10.20;;;;;;;;;;5029532;28;20633;-64
2023/08/27 05:33:30;;;;;;;11.63;9.27;;;;;;;;;;5029660;28;20200;-64
2023/08/27 05:35:56;;;;;;;11.93;9.75;;;;;;;;;;5029625;28;20223;-64
2023/08/27 05:38:24;;;;;;;13.35;12.20;;;;;;;;;;5030004;28;20207;-64
2023/08/27 05:40:51;;;;;;;14.20;12.85;;;;;;;;;;5029540;28;20755;-64
2023/08/27 05:43:18;;;;;;;11.25;10.13;;;;;;;;;;5029661;28;20204;-66
2023/08/27 05:45:44;;;;;;;16.50;15.05;;;;;;;;;;5029237;28;20200;-65
2023/08/27 05:48:10;;;;;;;15.68;12.20;;;;;;;;;;5029290;28;20327;-65
2023/08/27 05:50:37;;;;;;;15.52;13.90;;;;;;;;;;5029408;28;20257;-65
2023/08/27 05:53:03;;;;;;;14.35;10.45;;;;;;;;;;5029539;28;20281;-65
2023/08/27 05:55:31;;;;;;;12.23;11.32;;;;;;;;;;5029156;28;20747;-65
2023/08/27 05:57:59;;;;;;;18.05;11.80;;;;;;;;;;5029634;28;20258;-65
2023/08/27 06:00:26;;;;;;;18.13;10.40;;;;;;;;;;5029322;28;20204;-65
2023/08/27 06:02:52;;;;;;;9.85;8.95;;;;;;;;;;5029388;28;20204;-65
2023/08/27 06:05:19;;;;;;;9.90;9.07;;;;;;;;;;5029350;28;20231;-65
2023/08/27 06:07:45;;;;;;;8.65;8.10;;;;;;;;;;5029391;28;20740;-65
2023/08/27 06:10:12;;;;;;;12.20;8.07;;;;;;;;;;5029190;28;20568;-66
2023/08/27 06:12:39;;;;;;;9.95;7.18;;;;;;;;;;5033137;28;20211;-65
2023/08/27 06:15:07;;;;;;;8.77;7.57;;;;;;;;;;5033045;28;20258;-65
2023/08/27 06:17:33;;;;;;;8.13;7.43;;;;;;;;;;5032875;28;20289;-66
2023/08/27 06:20:00;;;;;;;8.88;6.90;;;;;;;;;;5033011;28;20207;-66
2023/08/27 06:22:26;;;;;;;7.47;6.95;;;;;;;;;;5032773;28;20253;-67
2023/08/27 06:24:52;;;;;;;7.00;5.90;;;;;;;;;;5032770;28;20265;-67
2023/08/27 06:27:19;;;;;;;7.28;6.82;;;;;;;;;;5033237;28;20223;-67
2023/08/27 06:29:47;;;;;;;9.02;7.43;;;;;;;;;;5032098;28;20261;-67
2023/08/27 06:32:13;;;;;;;7.22;6.53;;;;;;;;;;5032848;28;20265;-66
2023/08/27 06:34:40;;;;;;;9.82;9.00;;;;;;;;;;5032302;28;20258;-66
2023/08/27 06:37:06;;;;;;;8.18;6.72;;;;;;;;;;5032941;28;20277;-66
2023/08/27 06:39:33;;;;;;;8.75;6.90;;;;;;;;;;5032316;28;20230;-65
2023/08/27 06:41:59;;;;;;;7.50;6.80;;;;;;;;;;5032649;28;20281;-66
2023/08/27 06:44:26;;;;;;;7.72;6.93;;;;;;;;;;5031929;28;20232;-66
2023/08/27 06:46:53;;;;;;;8.90;7.15;;;;;;;;;;5032519;28;20311;-66
2023/08/27 06:49:20;;;;;;;7.55;6.93;;;;;;;;;;5032124;28;20207;-65
2023/08/27 06:51:46;;;;;;;7.93;6.78;;;;;;;;;;5032555;28;20261;-66
2023/08/27 06:54:13;;;;;;;7.50;6.93;;;;;;;45.64;nan;94941.56;5031872;28;20231;-66
2023/08/27 06:56:40;;;;;;;10.10;7.10;;;;;;;46.38;nan;94928.06;5040319;28;20227;-65
2023/08/27 06:59:07;;;;;;;7.18;6.63;;;;;;;46.75;nan;94929.47;5030712;28;20666;-65
2023/08/27 07:01:33;;;;;;;7.32;6.72;;;;;;;47.29;nan;94933.81;5030363;28;20211;-67
2023/08/27 07:04:03;;;;;;;7.93;7.13;;;;;;;48.13;nan;94931.56;5029989;28;20214;-67
2023/08/27 07:06:31;;;;;;;8.35;7.35;;;;;;;48.45;nan;94945.16;5030140;28;20286;-67
2023/08/27 07:08:57;;;;;;;7.82;7.25;;;;;;;48.57;nan;94942.00;5029984;28;20284;-67
2023/08/27 07:11:24;;;;;;;7.95;7.28;;;;;;;;;;5030098;28;20234;-66
2023/08/27 07:13:50;;;;;;;7.57;6.82;;;;;;;;;;5029701;28;20199;-66
2023/08/27 07:16:17;;;;;;;10.13;7.00;;;;;;;49.13;nan;94941.13;5030086;28;20301;-66
2023/08/27 07:18:43;;;;;;;6.75;6.32;;;;;;;;;;5030306;28;20233;-66
2023/08/27 07:21:11;;;;;;;7.03;6.55;;;;;;;49.34;nan;94950.50;5031293;28;20253;-66
2023/08/27 07:23:38;;;;;;;6.82;5.85;;;;;;;;;;5031675;28;20233;-66
2023/08/27 07:26:05;;;;;;;9.98;6.20;;;;;;;49.49;nan;94942.13;5031550;28;20261;-67
2023/08/27 07:28:31;;;;;;;6.72;6.15;;;;;;;;;;5031487;28;20268;-66
2023/08/27 07:30:58;;;;;;;6.50;5.88;;;;;;;49.92;nan;94944.56;5031400;28;20312;-67
2023/08/27 07:33:24;;;;;;;6.50;6.00;;;;;;;;;;5020828;28;20213;-67
2023/08/27 07:35:51;;;;;;;6.47;5.88;;;;;;;;;;5031299;28;20207;-67
2023/08/27 07:38:18;;;;;;;6.72;6.20;;;;;;;;;;5020577;28;20634;-67
2023/08/27 07:40:46;;;;;;;7.15;6.20;;;;;;;;;;5031009;28;20266;-67
2023/08/27 07:43:12;;;;;;;6.72;5.95;;;;;;;;;;5031632;28;20195;-67
2023/08/27 07:45:39;;;;;;;6.38;5.65;;;;;;;;;;5031300;28;20258;-67
2023/08/27 07:48:05;;;;;;;7.25;6.78;;;;;;;;;;5031068;28;20237;-67
2023/08/27 07:50:32;;;;;;;6.25;5.70;;;;;;;;;;5030988;28;20257;-67
2023/08/27 07:52:58;;;;;;;6.78;6.15;;;;;;;51.59;nan;94926.28;5031351;28;20219;-67
2023/08/27 07:55:31;;;;;;;6.25;5.90;;;;;;;51.32;nan;94921.88;5031116;28;20250;-67
2023/08/27 07:57:58;;;;;;;7.50;6.00;;;;;;;51.82;nan;94921.59;5030802;28;20253;-67
2023/08/27 08:00:25;;;;;;;7.07;6.47;;;;;;;50.71;nan;94917.97;5031151;28;20207;-67
2023/08/27 08:02:51;;;;;;;6.18;5.78;;;;;;;50.09;nan;94909.59;5030839;28;20672;-67
2023/08/27 08:05:18;;;;;;;7.00;6.20;;;;;;;50.84;nan;94917.09;5030616;28;20657;-67
2023/08/27 08:07:45;;;;;;;6.47;5.78;;;;;;;51.21;nan;94913.19;5031170;28;20594;-67
2023/08/27 08:10:11;;;;;;;6.53;6.03;;;;;;;51.26;nan;94906.81;5030365;28;20235;-67
2023/08/27 08:12:39;;;;;;;8.40;6.05;;;;;;;50.91;nan;94890.41;5030355;28;20696;-67
2023/08/27 08:15:07;;;;;;;7.22;6.75;;;;;;;51.24;nan;94903.63;5031124;28;20199;-66
2023/08/27 08:17:34;;;;;;;6.43;5.93;;;;;;;50.91;nan;94900.41;5030828;28;20308;-67
2023/08/27 08:20:01;;;;;;;6.85;6.35;;;;;;;51.63;nan;94895.56;5030481;28;20199;-67
2023/08/27 08:22:27;;;;;;;6.43;6.00;;;;;;;51.72;nan;94892.09;5030655;28;20207;-68
2023/08/27 08:24:55;;;;;;;6.70;5.93;;;;;;;51.24;nan;94887.38;5030130;28;20199;-67
2023/08/27 08:27:22;;;;;;;6.72;6.00;;;;;;;52.28;nan;94883.91;5030562;28;20207;-66
2023/08/27 08:29:51;;;;;;;10.18;6.30;;;;;;;51.55;nan;94882.75;5030247;28;20746;-66
2023/08/27 08:32:17;;;;;;;6.25;5.75;;;;;;;;;;5030539;28;20207;-66
2023/08/27 08:34:45;;;;;;;6.88;6.20;;;;;;;50.91;nan;94882.28;5025326;28;20198;-66
2023/08/27 08:37:12;;;;;;;6.57;5.90;;;;;;;50.31;nan;94877.22;5030189;28;20300;-66
2023/08/27 08:39:38;;;;;;;6.65;6.20;;;;;;;50.28;nan;94877.03;5030042;28;20746;-66
2023/08/27 08:42:13;;;;;;;6.38;5.82;;;;;;;50.35;nan;94872.81;5029841;28;20203;-66
2023/08/27 08:44:42;;;;;;;6.97;6.07;;;;;;;;;;5021270;28;20245;-67
2023/08/27 08:47:10;;;;;;;6.18;5.63;;;;;;;;;;5029323;28;20702;-66
2023/08/27 08:49:39;;;;;;;7.32;5.85;;;;;;;;;;5030006;28;20199;-66
2023/08/27 08:52:08;;;;;;;6.25;5.72;;;;;;;;;;5029643;28;20273;-68
2023/08/27 08:54:35;;;;;;;6.53;5.93;;;;;;;;;;5030240;28;20226;-67
2023/08/27 08:57:03;;;;;;;6.15;5.47;;;;;;;;;;5029739;28;20250;-67
2023/08/27 08:59:30;;;;;;;7.68;5.30;;;;;;;;;;5030178;28;20246;-67
2023/08/27 09:01:57;;;;;;;6.57;6.18;;;;;;;;;;5029826;28;20199;-66
2023/08/27 09:04:25;;;;;;;6.75;6.32;;;;;;;;;;5029722;28;20293;-66
2023/08/27 09:06:52;;;;;;;5.70;5.15;;;;;;;;;;5029648;28;20229;-66
2023/08/27 09:09:20;;;;;;;6.95;5.88;;;;;;;;;;5029584;28;20200;-66
2023/08/27 09:11:49;;;;;;;6.30;5.80;;;;;;;;;;5029450;28;20705;-67
2023/08/27 09:14:16;;;;;;;7.32;6.78;;;;;;;;;;5030142;28;20203;-67
2023/08/27 09:16:43;;;;;;;11.88;6.80;;;;;;;;;;5029684;28;20262;-66
2023/08/27 09:19:09;;;;;;;6.75;6.22;;;;;;;;;;5030031;28;20230;-66
2023/08/27 09:21:37;;;;;;;6.78;6.18;;;;;;;;;;5029633;28;20204;-67
2023/08/27 09:24:04;;;;;;;6.45;5.85;;;;;;;;;;5030073;28;20234;-66
2023/08/27 09:26:30;;;;;;;7.00;6.05;;;;;;;;;;5030138;28;20238;-66
2023/08/27 09:28:57;;;;;;;6.03;5.53;;;;;;;;;;5029453;28;20207;-66
2023/08/27 09:31:47;;;;;;;9.23;6.57;;;;;;;;;;5029560;28;20212;-66
2023/08/27 09:34:14;;;;;;;7.70;7.10;;;;;;;;;;5018760;28;20207;-67
2023/08/27 09:36:42;;;;;;;6.68;6.18;;;;;;;;;;5029596;28;20204;-67
2023/08/27 09:39:10;;;;;;;9.05;5.75;;;;;;;;;;5029102;28;20358;-66
2023/08/27 09:41:37;;;;;;;6.97;6.25;;;;;;;;;;5029632;28;20298;-66
2023/08/27 09:44:04;;;;;;;8.30;6.35;;;;;;;;;;5028899;28;20251;-65
2023/08/27 09:46:30;;;;;;;6.50;5.82;;;;;;;;;;5031920;28;20203;-65
2023/08/27 09:48:58;;;;;;;6.22;5.55;;;;;;;;;;5032913;28;20204;-65
2023/08/27 09:51:24;;;;;;;6.05;5.63;;;;;;;;;;5033582;28;20200;-66
2023/08/27 09:53:52;;;;;;;8.80;6.32;;;;;;;;;;5032281;28;20703;-65
2023/08/27 09:56:19;;;;;;;5.68;5.38;;;;;;;;;;5033372;28;20200;-68
2023/08/27 09:58:45;;;;;;;6.70;6.25;;;;;;;;;;5032691;28;20277;-66
2023/08/27 10:01:12;;;;;;;6.60;6.00;;;;;;;;;;5033055;28;20234;-66
2023/08/27 10:03:38;;;;;;;6.32;5.80;;;;;;;;;;5032478;28;20211;-65
2023/08/27 10:06:05;;;;;;;6.72;6.15;;;;;;;;;;5033067;28;20219;-64
2023/08/27 10:08:31;;;;;;;7.28;6.15;;;;;;;;;;5032645;28;20208;-67
2023/08/27 10:11:10;;;;;;;6.05;5.50;;;;;;;;;;5033084;28;20299;-66
2023/08/27 10:13:37;;;;;;;6.80;6.32;;;;;;;;;;5032833;28;20207;-66
2023/08/27 10:16:04;;;;;;;8.10;5.85;;;;;;;;;;5033034;28;20749;-67
2023/08/27 10:18:30;;;;;;;5.22;4.82;;;;;;;;;;5032682;28;20680;-65
2023/08/27 10:20:58;;;;;;;5.75;5.25;;;;;;;;;;5032905;28;20270;-66
2023/08/27 10:23:26;;;;;;;6.25;5.72;;;;;;;;;;5032632;28;20231;-67
2023/08/27 10:25:52;;;;;;;10.05;5.38;;;;;;;;;;5032678;28;20704;-66
2023/08/27 10:28:21;;;;;;;5.40;4.93;;;;;;;;;;5032292;28;20740;-66
2023/08/27 10:30:47;;;;;;;5.25;4.85;;;;;;;;;;5032449;28;20354;-66
2023/08/27 10:33:15;;;;;;;6.10;5.57;;;;;;;;;;5031533;28;20235;-65
2023/08/27 10:35:42;;;;;;;5.45;4.95;;;;;;;;;;5031783;28;20287;-66
2023/08/27 10:38:09;;;;;;;5.97;5.38;;;;;;;;;;5032302;28;20246;-66
2023/08/27 10:40:36;;;;;;;9.88;6.25;;;;;;;;;;5031928;28;20591;-65
2023/08/27 10:43:09;;;;;;;12.02;5.35;;;;;;;;;;5032453;28;20223;-66
2023/08/27 10:45:39;;;;;;;5.60;5.00;;;;;;;;;;5031948;28;20295;-66
2023/08/27 10:48:06;;;;;;;6.95;5.97;;;;;;;;;;5031844;28;20800;-65
2023/08/27 10:50:43;;;;;;;7.53;5.35;;;;;;;;;;5032137;28;20204;-66
2023/08/27 10:53:09;;;;;;;7.25;4.97;;;;;;;;;;5032050;28;20285;-66
2023/08/27 10:55:36;;;;;;;7.95;5.28;;;;;;;;;;5031901;28;20258;-66
2023/08/27 10:58:16;;;;;;;7.55;5.32;;;;;;;;;;5023535;28;20744;-67
2023/08/27 11:01:03;;;;;;;6.00;4.60;;;;;;;;;;5030108;28;20576;-66
2023/08/27 11:03:44;;;;;;;8.18;5.15;;;;;;;;;;5026221;28;20239;-66
2023/08/27 11:06:12;;;;;;;7.07;5.40;;;;;;;;;;5029950;28;20204;-66
2023/08/27 11:08:41;;;;;;;6.00;5.55;;;;;;;;;;5029937;28;20266;-66
2023/08/27 11:11:13;;;;;;;5.20;4.70;;;;;;;;;;5029793;28;20602;-66
2023/08/27 11:13:41;;;;;;;9.27;5.35;;;;;;;;;;5029727;28;20208;-66
2023/08/27 11:16:11;;;;;;;8.07;4.70;;;;;;;;;;5031835;28;20196;-66
2023/08/27 11:18:44;;;;;;;10.13;5.57;;;;;;;;;;5031495;28;20262;-67
2023/08/27 11:21:39;;;;;;;8.38;5.15;;;;;;;;;;5018479;28;20240;-65
2023/08/27 11:24:16;;;;;;;5.32;4.82;;;;;;;;;;5031593;28;20199;-65
2023/08/27 11:26:43;;;;;;;4.38;4.00;;;;;;;;;;5030944;28;20207;-65
2023/08/27 11:29:10;;;;;;;5.10;4.70;;;;;;;;;;5031612;28;20200;-65
2023/08/27 11:31:39;;;;;;;7.82;5.07;;;;;;;;;;5031322;28;20291;-66
2023/08/27 11:34:05;;;;;;;12.05;4.22;;;;;;;;;;5031630;28;20231;-65
2023/08/27 11:36:33;;;;;;;8.15;4.68;;;;;;;;;;5030843;28;20647;-65
2023/08/27 11:39:00;;;;;;;4.65;4.15;;;;;;;;;;5031034;28;20255;-66
2023/08/27 11:41:33;;;;;;;5.88;4.90;;;;;;;;;;5031904;28;20196;-65
2023/08/27 11:43:59;;;;;;;6.47;4.97;;;;;;;;;;5030722;28;20257;-65
2023/08/27 11:46:26;;;;;;;5.85;4.43;;;;;;;;;;5031287;28;20254;-66
2023/08/27 11:48:52;;;;;;;5.72;4.63;;;;;;;;;;5031272;28;20227;-65
2023/08/27 11:51:19;;;;;;;8.82;4.68;;;;;;;;;;5032010;28;20285;-65
2023/08/27 11:53:47;;;;;;;8.50;4.90;;;;;;;;;;5025349;28;20228;-66
2023/08/27 11:56:15;;;;;;;7.00;4.38;;;;;;;;;;5031489;28;20627;-65
2023/08/27 11:58:41;;;;;;;4.93;4.40;;;;;;;;;;5028401;28;20310;-65
2023/08/27 12:01:08;;;;;;;6.05;4.95;;;;;;;;;;5030768;28;20231;-65
2023/08/27 12:03:34;;;;;;;5.50;4.80;;;;;;;;;;5030847;28;20203;-65
2023/08/27 12:06:01;;;;;;;5.68;5.05;;;;;;;;;;5030879;28;20207;-66
2023/08/27 12:08:28;;;;;;;8.38;5.03;;;;;;;;;;5029618;28;20277;-65
2023/08/27 12:10:55;;;;;;;6.63;5.55;;;;;;;;;;5030880;28;20233;-65
2023/08/27 12:13:22;;;;;;;5.82;5.13;;;;;;;;;;5030208;28;20681;-65
2023/08/27 12:15:49;;;;;;;4.93;4.50;;;;;;;;;;5025539;28;20200;-65
2023/08/27 12:18:16;;;;;;;5.20;4.40;;;;;;;;;;5027593;28;20223;-66
2023/08/27 12:20:42;;;;;;;7.53;4.93;;;;;;;;;;5030310;28;20235;-66
2023/08/27 12:23:12;;;;;;;6.40;4.10;;;;;;;;;;5030125;28;20263;-66
2023/08/27 12:25:45;;;;;;;5.07;4.57;;;;;;;;;;5030183;28;20716;-66
2023/08/27 12:28:13;;;;;;;6.10;4.05;;;;;;;;;;5030374;28;20224;-65
2023/08/27 12:30:44;;;;;;;4.60;4.10;;;;;;;;;;5030677;28;20239;-66
2023/08/27 12:33:10;;;;;;;5.18;4.68;;;;;;;;;;5029369;28;20235;-66
2023/08/27 12:35:37;;;;;;;5.18;4.88;;;;;;;;;;5030594;28;20231;-66
2023/08/27 12:38:04;;;;;;;6.22;4.30;;;;;;;;;;5030013;28;20277;-66
2023/08/27 12:40:31;;;;;;;8.63;4.82;;;;;;;;;;5030328;28;20211;-66
2023/08/27 12:42:58;;;;;;;4.82;4.50;;;;;;;;;;5029879;28;20199;-66
2023/08/27 12:45:26;;;;;;;5.05;4.65;;;;;;;;;;5030389;28;20207;-65
2023/08/27 12:47:53;;;;;;;6.90;5.07;;;;;;;;;;5029820;28;20242;-66
2023/08/27 12:50:19;;;;;;;8.82;4.43;;;;;;;;;;5030187;28;20235;-66
2023/08/27 12:52:45;;;;;;;5.95;5.45;;;;;;;;;;5022070;28;20298;-65
2023/08/27 12:55:12;;;;;;;5.55;5.05;;;;;;;;;;5029765;28;20692;-65
2023/08/27 12:57:40;;;;;;;7.60;4.20;;;;;;;;;;5031310;28;20258;-65
2023/08/27 13:00:07;;;;;;;4.35;4.05;;;;;;;;;;5027883;28;20219;-66
2023/08/27 13:02:34;;;;;;;4.78;4.30;;;;;;;;;;5028003;28;20212;-66
2023/08/27 13:05:03;;;;;;;7.05;4.45;;;;;;;;;;5027859;28;20758;-66
2023/08/27 13:07:31;;;;;;;4.55;4.15;;;;;;;;;;5028446;28;20346;-66
2023/08/27 13:09:57;;;;;;;5.00;4.47;;;;;;;;;;5028059;28;20211;-66
2023/08/27 13:12:24;;;;;;;4.47;3.97;;;;;;;;;;5028111;28;20296;-65
2023/08/27 13:14:50;;;;;;;4.05;3.40;;;;;;;;;;5027710;28;20208;-65
2023/08/27 13:17:16;;;;;;;3.90;3.70;;;;;;;;;;5028517;28;20231;-69
2023/08/27 13:19:44;;;;;;;4.57;4.18;;;;;;;;;;5029508;28;20728;-65
2023/08/27 13:22:11;;;;;;;5.28;4.57;;;;;;;;;;5034152;28;20570;-66
2023/08/27 13:24:37;;;;;;;5.75;4.22;;;;;;;;;;5033383;28;20199;-65
2023/08/27 13:27:04;;;;;;;5.07;4.13;;;;;;;;;;5034189;28;20235;-65
2023/08/27 13:29:30;;;;;;;5.18;4.68;;;;;;;;;;5033309;28;20287;-64
2023/08/27 13:31:57;;;;;;;4.88;4.15;;;;;;;;;;5033708;28;20207;-65
2023/08/27 13:34:25;;;;;;;6.00;4.22;;;;;;;;;;5033354;28;20213;-65
2023/08/27 13:36:52;;;;;;;4.22;3.92;;;;;;;;;;5033696;28;20273;-66
2023/08/27 13:39:19;;;;;;;5.28;4.07;;;;;;;;;;5033352;28;20313;-65
2023/08/27 13:41:45;;;;;;;10.45;5.05;;;;;;;;;;5033680;28;20203;-65
2023/08/27 13:44:12;;;;;;;4.78;4.45;;;;;;;;;;5033097;28;20224;-66
2023/08/27 13:46:38;;;;;;;14.82;13.25;;;;;;;;;;5033210;28;20239;-65
2023/08/27 13:49:06;;;;;;;10.00;4.57;;;;;;;;;;5033337;28;20242;-66
2023/08/27 13:51:33;;;;;;;6.88;3.55;;;;;;;;;;5033421;28;20208;-65
2023/08/27 13:54:00;;;;;;;3.88;3.08;;;;;;;;;;5032758;28;20273;-65
2023/08/27 13:56:27;;;;;;;3.60;3.30;;;;;;;;;;5033244;28;20763;-65
2023/08/27 13:58:53;;;;;;;4.43;3.30;;;;;;;;;;5032749;28;20223;-65
2023/08/27 14:01:24;;;;;;;4.97;3.22;;;;;;;;;;5032950;28;20296;-66
2023/08/27 14:03:50;;;;;;;5.38;3.63;;;;;;;;;;5032952;28;20200;-66
2023/08/27 14:06:17;;;;;;;5.72;3.67;;;;;;;;;;5033252;28;20263;-66
2023/08/27 14:08:44;;;;;;;6.53;4.38;;;;;;;;;;5032487;28;20203;-66
2023/08/27 14:11:12;;;;;;;13.18;5.10;;;;;;;;;;5033131;28;20200;-65
2023/08/27 14:13:44;;;;;;;4.43;3.95;;;;;;;;;;5032649;28;20685;-65